Startpagina
METAR-TAF:

METAR-TAF

Vliegvelden :

Teheran, Iran

Teheran Mehrabad International Airport

breedte: 35-41N, lengte: 051-21E, hoogte: 1204 m

Actueel weer

Dit bericht is 40 minuten geleden gemaakt, om 09:00 UTC
Wind 8 kt uit het westzuidwesten
Temperatuur 33°C
Vochtigheid 13%
Druk 1016 hPa
Zicht 10 km of meer
Weinig wolken op 4000 ft

METAR: OIII 170900Z 25008KT 9999 FEW040 33/01 Q1015 A2999 NOSIG

Tijdstip: 14:10 (09:40 UTC)

Verwachting

Dit bericht is 4 uur en het 10 minuten geleden gemaakt, om 05:30 UTC
Verwachting geldig van 17 om 06 UTC tot 18 om 12 UTC
Wind 10 kt uit het oostzuidoosten
Zicht 10 km of meer
geen wolken onder 1500 m en geen cumulonimbus

TAF: OIII 170530Z 1706/1812 12005MPS CAVOK

Waarnemingen en weersverwachtingen van meer dan 4000 vliegvelden (METAR en TAF).

De beschikbare stations zijn de gele en rode punten op de kaart.

Ga met uw muis naar het station om de naam te zien.

Klik dan om waarnemingen en weersverwachtingen te zien.

kaart wijzigen: klik op de groene knoppen met een zwart kruis om in te zoomen, op de groene knop met een streepje om uit te zoomen of op de groene pijlen voor aangrenzende kaarten.


METAR-TAF: